| time (UTC) | temp F | wind direction | speed knots | gust knots | rain 1hr in | rain 24hr in | rain mn in | humidity % | barometer mb |
| 20260509022005 | 55 | 202 | 0.0 | 2.6 | 0.00 | 0.03 | 0.00 | 85 | 1007.4 |
| 20260509021505 | 55 | 202 | 0.0 | 4.3 | 0.00 | 0.03 | 0.00 | 85 | 1007.4 |
| 20260509021005 | 55 | 200 | 0.9 | 4.3 | 0.00 | 0.03 | 0.00 | 85 | 1007.4 |
| 20260509020505 | 55 | 202 | 1.7 | 5.2 | 0.00 | 0.03 | 0.00 | 85 | 1007.4 |
| 20260509020005 | 55 | 200 | 0.9 | 4.3 | 0.00 | 0.03 | 0.00 | 85 | 1007.4 |
| 20260509015504 | 55 | 179 | 1.7 | 4.3 | 0.00 | 0.03 | 0.00 | 84 | 1007.3 |
| 20260509015005 | 55 | 195 | 0.9 | 5.2 | 0.00 | 0.03 | 0.00 | 84 | 1007.3 |
| 20260509014504 | 55 | 222 | 1.7 | 5.2 | 0.00 | 0.03 | 0.00 | 84 | 1007.3 |
| 20260509014005 | 55 | 186 | 0.9 | 5.2 | 0.00 | 0.03 | 0.00 | 84 | 1007.3 |
| 20260509013504 | 56 | 191 | 1.7 | 5.2 | 0.00 | 0.03 | 0.00 | 84 | 1007.3 |
| 20260509011505 | 56 | 186 | 2.6 | 5.2 | 0.00 | 0.03 | 0.00 | 84 | 1006.8 |
| 20260509010505 | 56 | 219 | 1.7 | 7.0 | 0.00 | 0.03 | 0.00 | 83 | 1006.8 |
| 20260509010004 | 56 | 206 | 2.6 | 6.1 | 0.00 | 0.03 | 0.00 | 83 | 1006.8 |
| 20260509005004 | 56 | 223 | 1.7 | 5.2 | 0.00 | 0.03 | 0.00 | 83 | 1006.8 |
| 20260509004505 | 56 | 188 | 1.7 | 5.2 | 0.00 | 0.03 | 0.00 | 83 | 1006.7 |
| 20260509004004 | 56 | 209 | 2.6 | 6.1 | 0.00 | 0.03 | 0.00 | 83 | 1006.7 |
| 20260509003505 | 56 | 203 | 1.7 | 4.3 | 0.00 | 0.03 | 0.00 | 83 | 1006.7 |
| 20260509003004 | 57 | 199 | 2.6 | 6.1 | 0.00 | 0.03 | 0.00 | 83 | 1006.7 |
| 20260509002505 | 57 | 167 | 2.6 | 7.0 | 0.00 | 0.03 | 0.00 | 83 | 1006.7 |
| 20260509002005 | 57 | 211 | 0.9 | 6.1 | 0.00 | 0.03 | 0.00 | 82 | 1006.7 |
| 20260509001505 | 57 | 186 | 1.7 | 4.3 | 0.00 | 0.03 | 0.00 | 82 | 1006.7 |
| 20260509001004 | 57 | 242 | 2.6 | 5.2 | 0.00 | 0.03 | 0.00 | 82 | 1006.8 |
| 20260509000505 | 57 | 211 | 2.6 | 6.1 | 0.00 | 0.03 | 0.00 | 82 | 1006.8 |
| 20260509000004 | 57 | 225 | 3.5 | 7.0 | 0.00 | 0.03 | 0.00 | 81 | 1006.7 |
| 20260508235505 | 57 | 188 | 1.7 | 5.2 | 0.00 | 0.03 | 0.00 | 81 | 1006.7 |
| 20260508235004 | 57 | 231 | 2.6 | 7.0 | 0.00 | 0.03 | 0.00 | 81 | 1006.8 |
| 20260508234504 | 57 | 231 | 2.6 | 7.0 | 0.00 | 0.03 | 0.00 | 80 | 1006.8 |
| 20260508234004 | 57 | 201 | 3.5 | 7.0 | 0.00 | 0.03 | 0.00 | 80 | 1006.8 |
| 20260508233504 | 57 | 213 | 5.2 | 10.4 | 0.00 | 0.03 | 0.00 | 80 | 1006.8 |
| 20260508233005 | 57 | 215 | 6.1 | 12.2 | 0.00 | 0.03 | 0.00 | 80 | 1006.8 |
| 20260508232504 | 57 | 228 | 5.2 | 10.4 | 0.00 | 0.03 | 0.00 | 79 | 1006.8 |
| 20260508232005 | 57 | 190 | 5.2 | 10.4 | 0.00 | 0.03 | 0.00 | 79 | 1006.8 |
| 20260508231504 | 58 | 219 | 4.3 | 7.8 | 0.00 | 0.03 | 0.00 | 79 | 1006.8 |
| 20260508231005 | 58 | 233 | 5.2 | 10.4 | 0.00 | 0.03 | 0.00 | 79 | 1006.8 |
| 20260508230504 | 58 | 212 | 6.1 | 12.2 | 0.00 | 0.03 | 0.00 | 79 | 1006.9 |
| 20260508230005 | 58 | 225 | 4.3 | 10.4 | 0.00 | 0.03 | 0.00 | 79 | 1007.0 |
| 20260508225504 | 58 | 215 | 4.3 | 10.4 | 0.00 | 0.03 | 0.00 | 79 | 1006.9 |
| 20260508225005 | 58 | 233 | 4.3 | 8.7 | 0.00 | 0.03 | 0.00 | 79 | 1006.9 |
| 20260508224504 | 58 | 206 | 7.0 | 10.4 | 0.00 | 0.03 | 0.00 | 78 | 1006.9 |
| 20260508224004 | 58 | 233 | 4.3 | 7.8 | 0.00 | 0.03 | 0.00 | 79 | 1007.0 |
| 20260508223506 | 58 | 201 | 2.6 | 8.7 | 0.00 | 0.03 | 0.00 | 79 | 1007.0 |
| 20260508223005 | 57 | 208 | 5.2 | 10.4 | 0.00 | 0.03 | 0.00 | 78 | 1007.1 |
| 20260508222504 | 57 | 211 | 7.8 | 13.0 | 0.00 | 0.03 | 0.00 | 78 | 1007.2 |
| 20260508222005 | 57 | 197 | 4.3 | 10.4 | 0.00 | 0.03 | 0.00 | 79 | 1007.3 |
| 20260508221004 | 58 | 191 | 6.1 | 10.4 | 0.00 | 0.03 | 0.00 | 78 | 1007.3 |
| 20260508220504 | 58 | 190 | 4.3 | 10.4 | 0.00 | 0.03 | 0.00 | 78 | 1007.2 |
| 20260508220004 | 58 | 201 | 3.5 | 7.0 | 0.00 | 0.03 | 0.00 | 77 | 1007.3 |
| 20260508215504 | 58 | 211 | 4.3 | 7.8 | 0.00 | 0.03 | 0.00 | 77 | 1007.1 |
| 20260508214504 | 59 | 215 | 2.6 | 8.7 | 0.00 | 0.03 | 0.00 | 76 | 1007.1 |
| 20260508214004 | 59 | 184 | 2.6 | 7.8 | 0.00 | 0.03 | 0.00 | 76 | 1007.0 |
| 20260508213504 | 59 | 182 | 3.5 | 10.4 | 0.00 | 0.03 | 0.00 | 75 | 1007.0 |
| 20260508213004 | 59 | 179 | 3.5 | 7.8 | 0.00 | 0.03 | 0.00 | 74 | 1006.9 |
| 20260508212505 | 59 | 191 | 2.6 | 8.7 | 0.00 | 0.03 | 0.00 | 74 | 1006.9 |
| 20260508212004 | 59 | 196 | 5.2 | 8.7 | 0.00 | 0.03 | 0.00 | 72 | 1007.0 |
| 20260508211005 | 59 | 174 | 3.5 | 7.8 | 0.00 | 0.03 | 0.00 | 73 | 1007.4 |
| 20260508210505 | 59 | 180 | 1.7 | 5.2 | 0.00 | 0.03 | 0.00 | 74 | 1007.4 |
| 20260508210004 | 58 | 217 | 5.2 | 7.0 | 0.00 | 0.03 | 0.00 | 74 | 1007.4 |
| 20260508205005 | 58 | 206 | 1.7 | 6.1 | 0.00 | 0.03 | 0.00 | 75 | 1007.5 |
| 20260508204505 | 58 | 235 | 5.2 | 6.1 | 0.00 | 0.03 | 0.00 | 75 | 1007.6 |
| 20260508204005 | 58 | 238 | 4.3 | 6.1 | 0.00 | 0.03 | 0.00 | 74 | 1007.6 |
| 20260508203504 | 58 | 198 | 2.6 | 6.1 | 0.00 | 0.03 | 0.00 | 74 | 1007.6 |
| 20260508203004 | 58 | 197 | 0.9 | 4.3 | 0.00 | 0.03 | 0.00 | 75 | 1007.6 |
| 20260508202004 | 57 | 229 | 3.5 | 6.1 | 0.00 | 0.03 | 0.00 | 74 | 1007.8 |
| 20260508201504 | 58 | 209 | 4.3 | 7.8 | 0.00 | 0.03 | 0.00 | 74 | 1007.9 |
| 20260508200503 | 58 | 220 | 4.3 | 8.7 | 0.00 | 0.03 | 0.00 | 74 | 1008.0 |
| 20260508200004 | 57 | 229 | 2.6 | 7.0 | 0.00 | 0.03 | 0.00 | 76 | 1008.1 |
| 20260508195504 | 57 | 204 | 2.6 | 7.0 | 0.00 | 0.03 | 0.00 | 76 | 1008.1 |
| 20260508195004 | 57 | 188 | 2.6 | 6.1 | 0.00 | 0.03 | 0.00 | 77 | 1008.2 |
| 20260508194505 | 56 | 240 | 4.3 | 7.8 | 0.00 | 0.03 | 0.00 | 78 | 1008.4 |
| 20260508194004 | 56 | 197 | 1.7 | 5.2 | 0.00 | 0.03 | 0.00 | 79 | 1008.4 |
| 20260508193504 | 56 | 195 | 1.7 | 4.3 | 0.00 | 0.03 | 0.00 | 80 | 1008.5 |
| 20260508192504 | 55 | 229 | 1.7 | 4.3 | 0.00 | 0.03 | 0.00 | 80 | 1008.8 |
| 20260508191504 | 55 | 234 | 0.0 | 0.0 | 0.00 | 0.03 | 0.00 | 81 | 1009.0 |
| 20260508190504 | 55 | 234 | 0.9 | 5.2 | 0.00 | 0.03 | 0.00 | 82 | 1009.1 |
| 20260508190004 | 55 | 232 | 0.0 | 4.3 | 0.00 | 0.03 | 0.00 | 83 | 1009.1 |
| 20260508185504 | 54 | 228 | 1.7 | 5.2 | 0.00 | 0.03 | 0.00 | 84 | 1009.2 |
| 20260508185004 | 54 | 215 | 0.9 | 4.3 | 0.00 | 0.03 | 0.00 | 84 | 1009.1 |
| 20260508184504 | 54 | 210 | 1.7 | 6.1 | 0.00 | 0.03 | 0.00 | 84 | 1009.1 |
| 20260508183504 | 54 | 232 | 3.5 | 5.2 | 0.00 | 0.03 | 0.00 | 83 | 1009.4 |
| 20260508183004 | 54 | 192 | 0.9 | 5.2 | 0.00 | 0.03 | 0.00 | 83 | 1009.5 |
| 20260508182504 | 54 | 194 | 1.7 | 4.3 | 0.00 | 0.03 | 0.00 | 83 | 1009.6 |
| 20260508182004 | 54 | 201 | 0.9 | 4.3 | 0.00 | 0.03 | 0.00 | 83 | 1009.6 |
| 20260508181504 | 54 | 213 | 1.7 | 4.3 | 0.00 | 0.03 | 0.00 | 83 | 1009.6 |
| 20260508181004 | 54 | 213 | 2.6 | 5.2 | 0.00 | 0.03 | 0.00 | 83 | 1009.7 |
| 20260508180504 | 53 | 198 | 0.9 | 2.6 | 0.00 | 0.03 | 0.00 | 83 | 1009.7 |
| 20260508180004 | 53 | 229 | 3.5 | 7.0 | 0.00 | 0.03 | 0.00 | 82 | 1009.8 |
| 20260508175504 | 53 | 245 | 4.3 | 7.0 | 0.00 | 0.03 | 0.00 | 82 | 1010.0 |
| 20260508175004 | 54 | 234 | 5.2 | 8.7 | 0.00 | 0.03 | 0.00 | 82 | 1010.0 |
| 20260508174004 | 54 | 184 | 2.6 | 7.0 | 0.00 | 0.03 | 0.00 | 82 | 1010.2 |
| 20260508173504 | 54 | 193 | 2.6 | 6.1 | 0.00 | 0.03 | 0.00 | 82 | 1010.2 |
| 20260508173004 | 54 | 216 | 4.3 | 7.0 | 0.00 | 0.03 | 0.00 | 82 | 1010.2 |
| 20260508172004 | 54 | 210 | 4.3 | 7.8 | 0.00 | 0.03 | 0.00 | 81 | 1010.3 |
| 20260508171504 | 55 | 229 | 2.6 | 7.0 | 0.00 | 0.03 | 0.00 | 83 | 1010.3 |
| 20260508171004 | 54 | 230 | 1.7 | 8.7 | 0.00 | 0.03 | 0.00 | 83 | 1010.4 |
| 20260508170503 | 54 | 244 | 6.1 | 8.7 | 0.00 | 0.03 | 0.00 | 83 | 1010.6 |
| 20260508170004 | 54 | 231 | 5.2 | 7.8 | 0.00 | 0.03 | 0.00 | 83 | 1010.6 |
| 20260508165504 | 54 | 196 | 4.3 | 8.7 | 0.00 | 0.03 | 0.00 | 83 | 1010.6 |
| 20260508165004 | 54 | 242 | 5.2 | 8.7 | 0.00 | 0.03 | 0.00 | 82 | 1010.7 |
| 20260508164504 | 55 | 234 | 6.1 | 8.7 | 0.00 | 0.03 | 0.00 | 82 | 1010.7 |
| 20260508164004 | 55 | 267 | 5.2 | 7.8 | 0.00 | 0.03 | 0.00 | 82 | 1010.9 |
| 20260508162006 | 55 | 211 | 5.2 | 10.4 | 0.00 | 0.03 | 0.00 | 83 | 1010.9 |
| 20260508161506 | 55 | 237 | 7.0 | 10.4 | 0.00 | 0.03 | 0.00 | 83 | 1010.9 |
| 20260508161006 | 54 | 229 | 4.3 | 7.0 | 0.00 | 0.03 | 0.00 | 83 | 1010.7 |
| 20260508155506 | 54 | 198 | 4.3 | 8.7 | 0.00 | 0.03 | 0.00 | 85 | 1010.7 |
| 20260508155006 | 54 | 228 | 5.2 | 10.4 | 0.00 | 0.03 | 0.00 | 85 | 1010.7 |
| 20260508154506 | 53 | 239 | 4.3 | 8.7 | 0.00 | 0.03 | 0.00 | 86 | 1010.7 |
| 20260508154006 | 53 | 207 | 5.2 | 8.7 | 0.00 | 0.03 | 0.00 | 85 | 1010.8 |
| 20260508153506 | 53 | 223 | 4.3 | 10.4 | 0.00 | 0.03 | 0.00 | 86 | 1010.8 |
| 20260508153006 | 52 | 186 | 3.5 | 7.8 | 0.00 | 0.03 | 0.00 | 86 | 1010.8 |
| 20260508152006 | 52 | 194 | 4.3 | 8.7 | 0.00 | 0.03 | 0.00 | 87 | 1010.8 |
| 20260508151506 | 52 | 214 | 4.3 | 10.4 | 0.00 | 0.03 | 0.00 | 87 | 1010.8 |
| 20260508151006 | 51 | 187 | 1.7 | 5.2 | 0.00 | 0.03 | 0.00 | 88 | 1010.8 |
| 20260508150506 | 51 | 238 | 4.3 | 6.1 | 0.00 | 0.03 | 0.00 | 87 | 1011.1 |
| 20260508150006 | 50 | 236 | 2.6 | 6.1 | 0.00 | 0.03 | 0.00 | 88 | 1011.1 |
| 20260508145506 | 50 | 248 | 2.6 | 7.0 | 0.00 | 0.03 | 0.00 | 88 | 1011.2 |
| 20260508145007 | 50 | 230 | 4.3 | 6.1 | 0.00 | 0.03 | 0.00 | 88 | 1011.2 |
| 20260508144506 | 50 | 225 | 2.6 | 5.2 | 0.00 | 0.03 | 0.00 | 88 | 1011.4 |
| 20260508144006 | 50 | 238 | 1.7 | 6.1 | 0.00 | 0.03 | 0.00 | 87 | 1011.6 |
| 20260508143506 | 50 | 223 | 2.6 | 6.1 | 0.00 | 0.03 | 0.00 | 87 | 1011.6 |
| 20260508143007 | 50 | 230 | 4.3 | 6.1 | 0.00 | 0.03 | 0.00 | 87 | 1011.6 |
| 20260508142506 | 50 | 238 | 0.9 | 4.3 | 0.00 | 0.03 | 0.00 | 88 | 1011.6 |
| 20260508142006 | 50 | 239 | 0.9 | 5.2 | 0.00 | 0.03 | 0.00 | 88 | 1011.4 |
| 20260508141506 | 50 | 209 | 1.7 | 2.6 | 0.00 | 0.03 | 0.00 | 88 | 1011.5 |
| 20260508141006 | 50 | 238 | 0.0 | 1.7 | 0.00 | 0.03 | 0.00 | 88 | 1011.4 |
| 20260508140506 | 49 | 237 | 1.7 | 4.3 | 0.00 | 0.03 | 0.00 | 88 | 1011.6 |
| 20260508135506 | 49 | 215 | 1.7 | 2.6 | 0.00 | 0.03 | 0.00 | 88 | 1011.4 |
| 20260508135006 | 49 | 218 | 3.5 | 5.2 | 0.00 | 0.03 | 0.00 | 88 | 1011.5 |
| 20260508134506 | 49 | 246 | 1.7 | 5.2 | 0.00 | 0.03 | 0.00 | 89 | 1011.5 |
| 20260508134006 | 49 | 237 | 0.9 | 4.3 | 0.00 | 0.03 | 0.00 | 89 | 1011.6 |
| 20260508133506 | 49 | 237 | 0.0 | 0.0 | 0.00 | 0.03 | 0.00 | 89 | 1011.5 |
| 20260508133006 | 49 | 236 | 0.9 | 2.6 | 0.00 | 0.03 | 0.00 | 89 | 1011.5 |
| 20260508132505 | 49 | 231 | 1.7 | 4.3 | 0.00 | 0.03 | 0.00 | 89 | 1011.3 |
| 20260508132006 | 49 | 221 | 1.7 | 6.1 | 0.00 | 0.03 | 0.00 | 89 | 1011.3 |
| 20260508131505 | 48 | 247 | 2.6 | 4.3 | 0.00 | 0.03 | 0.00 | 89 | 1011.3 |
| 20260508131006 | 48 | 257 | 2.6 | 6.1 | 0.00 | 0.03 | 0.00 | 90 | 1011.3 |
| 20260508130506 | 48 | 240 | 1.7 | 5.2 | 0.00 | 0.03 | 0.00 | 90 | 1011.3 |
| 20260508130005 | 48 | 237 | 1.7 | 5.2 | 0.00 | 0.03 | 0.00 | 91 | 1011.3 |
| 20260508125006 | 47 | 239 | 2.6 | 4.3 | 0.00 | 0.03 | 0.00 | 91 | 1011.3 |
| 20260508124506 | 47 | 261 | 2.6 | 5.2 | 0.00 | 0.03 | 0.00 | 92 | 1011.4 |
| 20260508123506 | 47 | 244 | 1.7 | 4.3 | 0.00 | 0.03 | 0.00 | 92 | 1011.3 |
| 20260508123005 | 46 | 246 | 0.9 | 4.3 | 0.00 | 0.03 | 0.00 | 92 | 1011.3 |
| 20260508122506 | 46 | 240 | 2.6 | 2.6 | 0.00 | 0.03 | 0.00 | 92 | 1011.3 |
| 20260508122006 | 46 | 242 | 0.9 | 5.2 | 0.00 | 0.03 | 0.00 | 92 | 1011.3 |
| 20260508120505 | 46 | 226 | 0.0 | 1.7 | 0.00 | 0.03 | 0.00 | 93 | 1011.3 |
| 20260508120006 | 45 | 225 | 0.0 | 1.7 | 0.00 | 0.03 | 0.00 | 92 | 1011.3 |
| 20260508115507 | 45 | 224 | 0.0 | 0.0 | 0.00 | 0.03 | 0.00 | 92 | 1011.3 |
| 20260508114506 | 45 | 224 | 0.0 | 0.0 | 0.00 | 0.03 | 0.00 | 93 | 1011.3 |
| 20260508113507 | 44 | 224 | 0.0 | 0.0 | 0.00 | 0.03 | 0.00 | 92 | 1011.1 |
| 20260508113006 | 44 | 224 | 0.0 | 0.0 | 0.00 | 0.03 | 0.00 | 92 | 1011.0 |
| 20260508112505 | 44 | 224 | 0.0 | 0.0 | 0.00 | 0.03 | 0.00 | 92 | 1011.1 |
| 20260508112006 | 44 | 224 | 0.0 | 0.0 | 0.00 | 0.03 | 0.00 | 92 | 1010.9 |
| 20260508111006 | 43 | 227 | 0.9 | 2.6 | 0.00 | 0.03 | 0.00 | 92 | 1010.8 |
| 20260508110506 | 43 | 225 | 0.0 | 0.0 | 0.00 | 0.03 | 0.00 | 92 | 1010.8 |
| 20260508110006 | 43 | 223 | 0.0 | 0.0 | 0.00 | 0.03 | 0.00 | 92 | 1010.8 |
| 20260508105505 | 43 | 224 | 0.0 | 0.0 | 0.00 | 0.03 | 0.00 | 92 | 1010.8 |
| 20260508105006 | 43 | 226 | 0.0 | 0.0 | 0.00 | 0.03 | 0.00 | 92 | 1010.8 |
| 20260508104506 | 43 | 226 | 0.0 | 0.0 | 0.00 | 0.03 | 0.00 | 92 | 1010.8 |
| 20260508104005 | 43 | 226 | 0.0 | 0.0 | 0.00 | 0.03 | 0.00 | 92 | 1010.7 |
| 20260508103506 | 43 | 226 | 0.0 | 0.0 | 0.00 | 0.03 | 0.00 | 92 | 1010.7 |
| 20260508102506 | 43 | 226 | 0.0 | 0.0 | 0.00 | 0.03 | 0.00 | 92 | 1010.6 |
| 20260508102006 | 43 | 225 | 0.0 | 0.0 | 0.00 | 0.03 | 0.00 | 92 | 1010.5 |
| 20260508101006 | 43 | 226 | 0.0 | 1.7 | 0.00 | 0.03 | 0.00 | 92 | 1010.6 |
| 20260508100006 | 43 | 230 | 0.0 | 4.3 | 0.00 | 0.03 | 0.00 | 92 | 1010.7 |
| 20260508095006 | 42 | 228 | 0.0 | 0.0 | 0.00 | 0.03 | 0.00 | 92 | 1010.7 |
| 20260508093505 | 43 | 230 | 0.0 | 0.9 | 0.00 | 0.03 | 0.00 | 92 | 1010.7 |
| 20260508093005 | 43 | 230 | 0.0 | 0.9 | 0.00 | 0.03 | 0.00 | 92 | 1010.7 |
| 20260508092506 | 43 | 229 | 0.9 | 2.6 | 0.00 | 0.03 | 0.00 | 92 | 1010.7 |
| 20260508092005 | 43 | 229 | 0.0 | 1.7 | 0.00 | 0.03 | 0.00 | 92 | 1010.8 |
| 20260508091506 | 43 | 229 | 0.9 | 2.6 | 0.00 | 0.03 | 0.00 | 91 | 1010.8 |
| 20260508091005 | 43 | 230 | 0.9 | 4.3 | 0.00 | 0.03 | 0.00 | 91 | 1010.8 |
| 20260508090505 | 43 | 231 | 0.9 | 1.7 | 0.00 | 0.03 | 0.00 | 91 | 1010.8 |
| 20260508090005 | 43 | 231 | 0.0 | 0.9 | 0.00 | 0.03 | 0.00 | 92 | 1010.8 |
| 20260508085505 | 43 | 231 | 0.9 | 4.3 | 0.00 | 0.03 | 0.00 | 92 | 1010.8 |
| 20260508085006 | 43 | 234 | 0.0 | 2.6 | 0.00 | 0.03 | 0.00 | 92 | 1010.9 |
| 20260508084006 | 43 | 234 | 0.9 | 4.3 | 0.00 | 0.03 | 0.00 | 91 | 1010.9 |
| 20260508083505 | 43 | 211 | 0.0 | 0.0 | 0.00 | 0.03 | 0.00 | 91 | 1010.8 |
| 20260508083005 | 43 | 211 | 0.0 | 0.0 | 0.00 | 0.03 | 0.00 | 91 | 1010.8 |
| 20260508082506 | 43 | 211 | 0.0 | 0.0 | 0.00 | 0.03 | 0.00 | 92 | 1010.8 |
| 20260508081506 | 42 | 211 | 0.0 | 0.0 | 0.00 | 0.03 | 0.00 | 91 | 1010.9 |
| 20260508081005 | 42 | 211 | 0.0 | 0.0 | 0.00 | 0.03 | 0.00 | 91 | 1010.9 |
| 20260508080506 | 42 | 211 | 0.0 | 0.0 | 0.00 | 0.03 | 0.00 | 91 | 1010.9 |
| 20260508080005 | 42 | 211 | 0.0 | 0.0 | 0.00 | 0.03 | 0.00 | 91 | 1010.9 |
| 20260508075006 | 42 | 211 | 0.0 | 0.0 | 0.00 | 0.03 | 0.00 | 90 | 1010.9 |
| 20260508074505 | 42 | 211 | 0.0 | 0.0 | 0.00 | 0.03 | 0.00 | 90 | 1010.9 |
| 20260508074006 | 42 | 211 | 0.0 | 0.0 | 0.00 | 0.03 | 0.00 | 90 | 1010.9 |
| 20260508073505 | 42 | 211 | 0.0 | 0.0 | 0.00 | 0.03 | 0.00 | 90 | 1010.9 |
| 20260508073005 | 43 | 211 | 0.0 | 0.0 | 0.00 | 0.03 | 0.00 | 90 | 1010.9 |
| 20260508072505 | 43 | 211 | 0.0 | 0.0 | 0.00 | 0.03 | 0.00 | 90 | 1010.8 |
| 20260508072005 | 43 | 211 | 0.0 | 0.0 | 0.00 | 0.03 | 0.00 | 90 | 1010.8 |
| 20260508071506 | 43 | 211 | 0.0 | 0.0 | 0.00 | 0.03 | 0.00 | 90 | 1010.9 |
| 20260508071005 | 43 | 211 | 0.0 | 0.0 | 0.00 | 0.03 | 0.00 | 90 | 1010.9 |
| 20260508070005 | 43 | 211 | 0.0 | 0.0 | 0.00 | 0.03 | 0.00 | 90 | 1010.9 |
| 20260508065505 | 43 | 211 | 0.0 | 0.0 | 0.00 | 0.03 | 0.00 | 90 | 1010.9 |
| 20260508065006 | 43 | 211 | 0.0 | 0.0 | 0.00 | 0.03 | 0.00 | 90 | 1010.9 |
| 20260508064505 | 43 | 211 | 0.0 | 0.0 | 0.00 | 0.03 | 0.00 | 90 | 1010.9 |
| 20260508064006 | 44 | 211 | 0.0 | 0.0 | 0.00 | 0.03 | 0.00 | 90 | 1011.0 |
| 20260508063505 | 44 | 211 | 0.0 | 0.0 | 0.00 | 0.03 | 0.00 | 90 | 1011.1 |
| 20260508062505 | 44 | 211 | 0.0 | 0.9 | 0.00 | 0.03 | 0.00 | 90 | 1011.2 |
| 20260508062005 | 44 | 211 | 0.0 | 1.7 | 0.00 | 0.03 | 0.00 | 90 | 1011.2 |
| 20260508061506 | 44 | 211 | 0.0 | 0.0 | 0.00 | 0.03 | 0.00 | 90 | 1011.3 |
| 20260508060505 | 44 | 211 | 0.0 | 0.0 | 0.00 | 0.03 | 0.00 | 90 | 1011.3 |
| 20260508055505 | 44 | 211 | 0.0 | 2.6 | 0.00 | 0.03 | 0.00 | 90 | 1011.4 |
| 20260508055005 | 44 | 211 | 0.0 | 0.9 | 0.00 | 0.03 | 0.00 | 90 | 1011.4 |
| 20260508054505 | 45 | 212 | 0.0 | 1.7 | 0.00 | 0.03 | 0.00 | 90 | 1011.4 |
| 20260508054005 | 45 | 212 | 0.9 | 5.2 | 0.00 | 0.03 | 0.00 | 89 | 1011.4 |
| 20260508053505 | 45 | 190 | 0.9 | 2.6 | 0.00 | 0.03 | 0.00 | 89 | 1011.4 |
| 20260508053005 | 45 | 191 | 0.0 | 0.9 | 0.00 | 0.03 | 0.00 | 90 | 1011.4 |
| 20260508052505 | 45 | 192 | 1.7 | 4.3 | 0.00 | 0.03 | 0.00 | 90 | 1011.4 |
| 20260508051505 | 45 | 195 | 0.0 | 1.7 | 0.00 | 0.03 | 0.00 | 89 | 1011.4 |
| 20260508051005 | 45 | 196 | 0.9 | 2.6 | 0.00 | 0.03 | 0.00 | 89 | 1011.4 |
| 20260508050505 | 45 | 169 | 0.0 | 1.7 | 0.00 | 0.03 | 0.00 | 89 | 1011.4 |
| 20260508050005 | 45 | 168 | 0.9 | 1.7 | 0.00 | 0.03 | 0.00 | 89 | 1011.5 |
| 20260508045505 | 45 | 196 | 0.0 | 0.9 | 0.00 | 0.03 | 0.00 | 89 | 1011.5 |
| 20260508045005 | 45 | 196 | 0.0 | 1.7 | 0.00 | 0.03 | 0.00 | 89 | 1011.5 |
| 20260508044505 | 45 | 196 | 0.9 | 1.7 | 0.00 | 0.03 | 0.00 | 89 | 1011.5 |
| 20260508044005 | 45 | 197 | 0.0 | 0.9 | 0.00 | 0.03 | 0.00 | 89 | 1011.4 |
| 20260508043505 | 45 | 197 | 0.0 | 1.7 | 0.00 | 0.03 | 0.00 | 89 | 1011.5 |
| 20260508042505 | 45 | 199 | 0.9 | 2.6 | 0.00 | 0.03 | 0.00 | 88 | 1011.4 |
| 20260508042005 | 46 | 207 | 0.0 | 0.9 | 0.00 | 0.03 | 0.00 | 88 | 1011.4 |
| 20260508041505 | 46 | 207 | 0.0 | 1.7 | 0.00 | 0.03 | 0.00 | 88 | 1011.4 |
| 20260508041005 | 46 | 207 | 0.0 | 1.7 | 0.00 | 0.03 | 0.00 | 88 | 1011.4 |
| 20260508040005 | 46 | 207 | 0.9 | 2.6 | 0.00 | 0.03 | 0.00 | 88 | 1011.5 |
| 20260508035505 | 46 | 215 | 0.0 | 1.7 | 0.00 | 0.03 | 0.03 | 88 | 1011.4 |
| 20260508035005 | 46 | 220 | 0.0 | 1.7 | 0.00 | 0.03 | 0.03 | 88 | 1011.5 |
| 20260508034505 | 46 | 222 | 0.9 | 4.3 | 0.00 | 0.03 | 0.03 | 88 | 1011.6 |
| 20260508034005 | 46 | 202 | 0.0 | 4.3 | 0.00 | 0.03 | 0.03 | 87 | 1011.6 |
| 20260508033505 | 46 | 200 | 1.7 | 4.3 | 0.00 | 0.03 | 0.03 | 87 | 1011.8 |
| 20260508033005 | 46 | 198 | 0.0 | 0.9 | 0.00 | 0.03 | 0.03 | 86 | 1011.7 |
| 20260508032505 | 46 | 196 | 0.0 | 0.9 | 0.02 | 0.03 | 0.03 | 86 | 1011.6 |
| 20260508032005 | 46 | 196 | 0.9 | 2.6 | 0.03 | 0.03 | 0.03 | 86 | 1011.5 |
| 20260508031505 | 46 | 194 | 0.0 | 2.6 | 0.03 | 0.03 | 0.03 | 86 | 1011.5 |
| 20260508031005 | 46 | 193 | 0.0 | 0.9 | 0.03 | 0.03 | 0.03 | 86 | 1011.4 |
| 20260508030505 | 46 | 192 | 0.0 | 0.0 | 0.03 | 0.03 | 0.03 | 86 | 1011.4 |
| 20260508025505 | 46 | 186 | 1.7 | 7.0 | 0.03 | 0.03 | 0.03 | 86 | 1011.3 |
| 20260508025004 | 46 | 169 | 2.6 | 8.7 | 0.03 | 0.03 | 0.03 | 86 | 1011.1 |
| 20260508024505 | 47 | 164 | 6.1 | 15.6 | 0.03 | 0.03 | 0.03 | 85 | 1011.1 |
| 20260508024005 | 47 | 177 | 0.9 | 4.3 | 0.03 | 0.03 | 0.03 | 84 | 1011.9 |
| 20260508023505 | 47 | 269 | 0.0 | 5.2 | 0.03 | 0.03 | 0.03 | 83 | 1012.3 |
| 20260508023005 | 47 | 308 | 1.7 | 4.3 | 0.03 | 0.03 | 0.03 | 83 | 1012.4 |
| 20260508022505 | 48 | 228 | 1.7 | 8.7 | 0.01 | 0.01 | 0.01 | 81 | 1012.5 |